createdAt,value
2023-03-23T06:28:04.657Z,412.00
2023-03-23T06:29:20.463Z,1212.00
2023-03-23T06:30:22.463Z,1896.00
2023-03-23T06:31:22.533Z,2000.00
2023-03-23T06:32:22.627Z,1348.00
2023-03-23T06:34:22.251Z,2024.00
2023-03-23T06:35:45.403Z,2056.00
2023-03-23T06:36:23.260Z,1992.00
2023-03-23T06:37:25.051Z,1956.00
2023-03-23T06:38:24.384Z,2132.00
2023-03-23T06:39:43.687Z,2180.00
2023-03-23T06:40:44.009Z,1764.00
2023-03-23T06:41:22.912Z,1928.00
2023-03-23T06:42:25.844Z,2208.00
2023-03-23T06:43:21.383Z,2304.00
2023-03-23T06:44:53.358Z,2300.00
2023-03-23T06:47:01.565Z,2444.00
2023-03-23T06:48:02.985Z,2440.00
2023-03-23T06:50:05.051Z,2604.00
2023-03-23T06:51:06.345Z,2624.00
2023-03-23T06:53:01.883Z,2672.00
2023-03-23T06:54:01.212Z,2840.00
2023-03-23T06:55:57.011Z,1684.00
2023-03-23T06:56:57.106Z,1500.00
2023-03-23T06:58:52.580Z,736.00
2023-03-23T06:59:52.027Z,2672.00
2023-03-23T07:02:07.412Z,2948.00
2023-03-23T07:03:09.368Z,2932.00
2023-03-23T07:04:10.065Z,2912.00
2023-03-23T07:05:07.199Z,2972.00
2023-03-23T07:06:07.100Z,2844.00
2023-03-23T07:07:05.087Z,2864.00
2023-03-23T07:08:06.263Z,1844.00
2023-03-23T07:09:06.528Z,2764.00
2023-03-23T07:10:06.472Z,2828.00
2023-03-23T07:11:14.103Z,2764.00
2023-03-23T07:12:15.680Z,2788.00
2023-03-23T07:14:02.366Z,2840.00
2023-03-23T07:15:00.788Z,2764.00
2023-03-23T07:17:16.048Z,2764.00
2023-03-23T07:18:14.015Z,2776.00
2023-03-23T07:19:14.117Z,2808.00
2023-03-23T07:20:15.857Z,2832.00
2023-03-23T07:21:14.059Z,2856.00
2023-03-23T07:22:15.138Z,2872.00
2023-03-23T07:23:14.625Z,2816.00
2023-03-23T07:24:13.144Z,2848.00
2023-03-23T07:25:14.090Z,2824.00
2023-03-23T07:26:13.462Z,2984.00
2023-03-23T07:27:15.090Z,2908.00
2023-03-23T07:28:13.757Z,2956.00
2023-03-23T07:29:13.722Z,2896.00
2023-03-23T07:30:14.364Z,1544.00
2023-03-23T07:31:15.558Z,2888.00
2023-03-23T07:32:14.705Z,2864.00
2023-03-23T07:33:14.790Z,1516.00
2023-03-23T07:34:14.732Z,2936.00
2023-03-23T07:35:14.729Z,2948.00
2023-03-23T07:36:13.858Z,2920.00
2023-03-23T07:37:13.776Z,2604.00
2023-03-23T07:38:14.282Z,2872.00
2023-03-23T07:39:14.710Z,2884.00
2023-03-23T07:40:13.192Z,2892.00
2023-03-23T07:41:14.197Z,2900.00
2023-03-23T07:42:13.753Z,2916.00
2023-03-23T07:43:15.535Z,2884.00
2023-03-23T07:44:14.167Z,2916.00
2023-03-23T07:46:14.945Z,2864.00
2023-03-23T07:47:18.140Z,2852.00
2023-03-23T07:48:21.123Z,2900.00
2023-03-23T07:49:15.326Z,2752.00
2023-03-23T07:50:15.432Z,2808.00
2023-03-23T07:51:15.427Z,2796.00
2023-03-23T07:52:34.766Z,2784.00
2023-03-23T07:53:12.558Z,2776.00
2023-03-23T07:54:12.502Z,2792.00
2023-03-23T07:55:12.497Z,2796.00
2023-03-23T07:56:12.455Z,2804.00
2023-03-23T07:57:12.469Z,2776.00
2023-03-23T07:58:33.411Z,2776.00
2023-03-23T07:59:12.440Z,2772.00
2023-03-23T08:00:12.382Z,2728.00
2023-03-23T08:01:12.467Z,2768.00
2023-03-23T08:02:12.398Z,2752.00
2023-03-23T08:03:14.368Z,2768.00
2023-03-23T08:04:36.538Z,2768.00
2023-03-23T08:05:15.745Z,2752.00
2023-03-23T08:06:13.093Z,2764.00
2023-03-23T08:07:13.276Z,2752.00
2023-03-23T08:08:13.206Z,2876.00
2023-03-23T08:09:13.398Z,2744.00
2023-03-23T08:10:35.054Z,2624.00
2023-03-23T08:11:12.398Z,2764.00
2023-03-23T08:12:15.081Z,2736.00
2023-03-23T08:13:12.395Z,2748.00
2023-03-23T08:14:12.125Z,2764.00
2023-03-23T08:15:13.078Z,2748.00
2023-03-23T08:17:12.139Z,2768.00
2023-03-23T08:18:12.108Z,2644.00
2023-03-23T08:19:13.289Z,2808.00
2023-03-23T08:20:12.167Z,2940.00
2023-03-23T08:21:15.845Z,1912.00
2023-03-23T08:23:46.583Z,2800.00
2023-03-23T08:24:44.131Z,2816.00
2023-03-23T08:26:42.510Z,2848.00
2023-03-23T08:27:42.474Z,2756.00
2023-03-23T08:28:41.534Z,2928.00
2023-03-23T08:29:43.455Z,2940.00
2023-03-23T08:30:43.467Z,2444.00
2023-03-23T08:31:41.886Z,2804.00
2023-03-23T08:32:41.823Z,2912.00
2023-03-23T08:33:42.132Z,2072.00
2023-03-23T08:34:42.343Z,2964.00
2023-03-23T08:35:42.962Z,2568.00
2023-03-23T08:36:42.815Z,2872.00
2023-03-23T08:37:41.655Z,2824.00
2023-03-23T08:38:41.403Z,2804.00
2023-03-23T08:39:41.312Z,1876.00
2023-03-23T08:40:41.213Z,3084.00
2023-03-23T08:41:41.225Z,2964.00
2023-03-23T08:42:43.753Z,884.00
2023-03-23T08:43:41.323Z,3012.00
2023-03-23T08:44:41.144Z,2592.00
2023-03-23T08:45:41.266Z,3020.00
2023-03-23T08:46:41.123Z,1040.00
2023-03-23T08:47:41.088Z,2104.00
2023-03-23T08:48:41.062Z,956.00
2023-03-23T08:49:41.091Z,2564.00
2023-03-23T08:50:41.048Z,3024.00
2023-03-23T08:51:40.998Z,1380.00
2023-03-23T08:52:41.009Z,956.00
2023-03-23T08:53:40.992Z,980.00
2023-03-23T08:54:41.053Z,1648.00
2023-03-23T08:55:41.213Z,1000.00
2023-03-23T08:56:41.318Z,888.00
2023-03-23T08:57:41.212Z,1000.00
2023-03-23T08:58:41.202Z,1912.00
2023-03-23T08:59:40.887Z,1368.00
2023-03-23T09:00:45.924Z,3092.00
2023-03-23T09:01:40.814Z,1056.00
2023-03-23T09:02:40.846Z,1340.00
2023-03-23T09:03:40.773Z,1128.00
2023-03-23T09:04:40.763Z,828.00
2023-03-23T09:05:40.912Z,900.00
2023-03-23T09:06:41.134Z,976.00
2023-03-23T09:07:41.091Z,1532.00
2023-03-23T09:08:40.834Z,1976.00
2023-03-23T09:09:40.809Z,1512.00
2023-03-23T09:10:41.008Z,3076.00
2023-03-23T09:11:41.678Z,1180.00
2023-03-23T09:12:40.815Z,1224.00
2023-03-23T09:13:40.621Z,1128.00
2023-03-23T09:14:40.751Z,1184.00
2023-03-23T09:15:49.531Z,1048.00
2023-03-23T09:16:40.553Z,1024.00
2023-03-23T09:17:40.683Z,992.00
2023-03-23T09:18:40.670Z,1032.00
2023-03-23T09:19:40.703Z,900.00
2023-03-23T09:20:40.550Z,1076.00
2023-03-23T09:21:40.662Z,1064.00
2023-03-23T09:22:40.457Z,1408.00
2023-03-23T09:23:40.397Z,1136.00
2023-03-23T09:24:40.405Z,1264.00
2023-03-23T09:25:41.027Z,1148.00
2023-03-23T09:26:40.867Z,1292.00
2023-03-23T09:27:40.762Z,1532.00
2023-03-23T09:28:40.351Z,1252.00
2023-03-23T09:29:40.583Z,1008.00
2023-03-23T09:30:52.870Z,1264.00
2023-03-23T09:31:40.387Z,1308.00
2023-03-23T09:32:40.446Z,1192.00
2023-03-23T09:33:40.819Z,1112.00
2023-03-23T09:34:40.625Z,1024.00
2023-03-23T09:35:40.840Z,1004.00
2023-03-23T09:36:40.255Z,992.00
2023-03-23T09:37:40.923Z,1012.00
2023-03-23T09:38:40.380Z,1172.00
2023-03-23T09:39:40.094Z,1132.00
2023-03-23T09:40:40.151Z,1116.00
2023-03-23T09:41:40.057Z,1132.00
2023-03-23T09:42:40.056Z,1192.00
2023-03-23T09:43:40.019Z,1048.00
2023-03-23T09:44:40.000Z,1032.00
2023-03-23T09:45:40.309Z,908.00
2023-03-23T09:46:39.970Z,1024.00
2023-03-23T09:47:39.944Z,988.00
2023-03-23T09:48:40.230Z,1076.00
2023-03-23T09:49:57.132Z,1128.00
2023-03-23T09:51:42.525Z,1240.00
2023-03-23T09:52:38.164Z,1104.00
2023-03-23T09:54:41.919Z,1052.00
2023-03-23T09:55:42.669Z,980.00
2023-03-23T09:57:46.011Z,1020.00
2023-03-23T09:58:46.938Z,1076.00
2023-03-23T10:01:15.326Z,1376.00
2023-03-23T10:02:15.276Z,1304.00
2023-03-23T10:03:19.860Z,1244.00
2023-03-23T10:05:18.842Z,1348.00
2023-03-23T11:25:52.081Z,916.00
2023-03-23T11:26:58.693Z,836.00
2023-03-23T11:27:54.453Z,860.00
2023-03-23T11:28:53.334Z,916.00
2023-03-23T11:29:58.454Z,904.00
2023-03-23T11:30:52.320Z,876.00
2023-03-23T11:31:53.316Z,872.00
2023-03-23T11:32:54.373Z,948.00
2023-03-23T11:34:03.837Z,976.00
2023-03-23T11:34:52.596Z,968.00
2023-03-23T11:35:52.283Z,956.00
2023-03-23T11:36:52.571Z,920.00
2023-03-23T11:37:52.197Z,920.00
2023-03-23T11:38:52.187Z,936.00
2023-03-23T11:39:52.306Z,1024.00
2023-03-23T11:40:52.465Z,940.00
2023-03-23T11:42:03.438Z,888.00
2023-03-23T11:42:51.587Z,896.00
2023-03-23T11:43:51.602Z,892.00
2023-03-23T11:44:51.547Z,916.00
2023-03-23T11:45:51.527Z,964.00
2023-03-23T11:46:51.531Z,1072.00
2023-03-23T11:47:51.516Z,1040.00
2023-03-23T11:48:51.497Z,1228.00
2023-03-23T11:49:51.449Z,1576.00
2023-03-23T11:50:51.440Z,1968.00
2023-03-23T11:51:51.457Z,1108.00
2023-03-23T11:52:51.457Z,1180.00
2023-03-23T11:53:51.450Z,1056.00
2023-03-23T11:54:51.581Z,972.00
2023-03-23T11:55:51.883Z,1004.00
2023-03-23T11:56:51.904Z,1116.00
2023-03-23T11:57:52.086Z,1056.00
2023-03-23T11:58:52.209Z,1024.00
2023-03-23T11:59:51.288Z,1132.00
2023-03-23T12:00:51.242Z,884.00
2023-03-23T12:01:51.221Z,908.00
2023-03-23T12:02:51.216Z,900.00
2023-03-23T12:03:51.183Z,1088.00
2023-03-23T12:04:51.162Z,1044.00
2023-03-23T12:05:51.148Z,1116.00
2023-03-23T12:06:51.152Z,1040.00
2023-03-23T12:07:51.131Z,868.00
2023-03-23T12:08:51.107Z,1060.00
2023-03-23T12:09:51.075Z,1684.00
2023-03-23T12:11:51.091Z,1412.00
2023-03-23T12:12:51.193Z,1320.00
2023-03-23T12:13:53.241Z,1372.00
2023-03-23T12:14:51.508Z,1352.00
2023-03-23T12:15:51.620Z,1280.00
2023-03-23T12:16:51.844Z,1228.00
2023-03-23T12:17:52.007Z,1220.00
2023-03-23T12:18:50.925Z,1204.00
2023-03-23T12:19:50.926Z,1196.00
2023-03-23T12:20:50.933Z,1244.00
2023-03-23T12:21:50.922Z,1272.00
2023-03-23T12:22:50.867Z,1252.00
2023-03-23T12:23:50.849Z,1224.00
2023-03-23T12:24:50.859Z,1252.00
2023-03-23T12:25:50.782Z,1272.00
2023-03-23T12:26:50.788Z,1228.00
2023-03-23T12:27:50.784Z,1172.00
2023-03-23T12:28:50.760Z,1136.00
2023-03-23T12:29:50.726Z,1152.00
2023-03-23T12:30:50.742Z,1160.00
2023-03-23T12:31:50.894Z,736.00
2023-03-23T12:32:51.096Z,1148.00
2023-03-23T12:33:51.116Z,1100.00
2023-03-23T12:34:51.309Z,1068.00
2023-03-23T12:35:51.428Z,1044.00
2023-03-23T12:36:51.566Z,1052.00
2023-03-23T12:37:50.571Z,1060.00
2023-03-23T12:38:50.552Z,648.00
2023-03-23T12:39:50.548Z,1128.00
2023-03-23T12:40:51.290Z,1100.00
2023-03-23T12:41:50.536Z,944.00
2023-03-23T12:42:50.470Z,1004.00
2023-03-23T12:43:50.470Z,744.00
2023-03-23T12:44:52.016Z,876.00
2023-03-23T12:45:52.030Z,956.00
2023-03-23T12:46:50.637Z,900.00
2023-03-23T12:47:50.411Z,484.00
2023-03-23T12:48:50.403Z,504.00
2023-03-23T12:49:50.498Z,584.00
2023-03-23T12:50:50.688Z,580.00
2023-03-23T12:51:50.836Z,568.00
2023-03-23T12:52:51.003Z,524.00
2023-03-23T12:53:51.180Z,504.00
2023-03-23T12:54:50.266Z,548.00
2023-03-23T12:55:50.261Z,904.00
2023-03-23T12:56:50.285Z,652.00
2023-03-23T12:57:51.269Z,896.00
2023-03-23T12:58:53.735Z,808.00
2023-03-23T12:59:50.259Z,820.00
2023-03-23T13:00:50.160Z,504.00
2023-03-23T13:01:50.131Z,872.00
2023-03-23T13:02:50.185Z,884.00
2023-03-23T13:03:50.091Z,860.00
2023-03-23T13:04:50.594Z,512.00
2023-03-23T13:05:50.088Z,504.00
2023-03-23T13:06:50.091Z,404.00
2023-03-23T13:07:50.220Z,800.00
2023-03-23T13:08:50.335Z,652.00
2023-03-23T13:09:50.476Z,780.00
2023-03-23T13:10:50.651Z,828.00
2023-03-23T13:11:50.789Z,812.00
2023-03-23T13:12:49.968Z,392.00
2023-03-23T13:13:55.193Z,404.00
2023-03-23T13:14:49.880Z,416.00
2023-03-23T13:15:49.867Z,776.00
2023-03-23T13:16:49.872Z,712.00
2023-03-23T13:17:49.832Z,700.00
2023-03-23T13:18:49.807Z,900.00
2023-03-23T13:19:49.980Z,848.00
2023-03-23T13:20:49.797Z,780.00
2023-03-23T13:21:53.048Z,732.00
2023-03-23T13:22:50.392Z,724.00
2023-03-23T13:23:49.736Z,708.00
2023-03-23T13:24:49.723Z,676.00
2023-03-23T13:25:49.742Z,656.00
2023-03-23T13:26:49.944Z,648.00
2023-03-23T13:27:50.054Z,648.00
2023-03-23T13:28:50.668Z,640.00
2023-03-23T13:29:50.381Z,636.00
2023-03-23T13:30:50.492Z,628.00
2023-03-23T13:31:49.584Z,620.00
2023-03-23T13:32:56.894Z,612.00
2023-03-23T13:33:49.571Z,612.00
2023-03-23T13:34:50.858Z,604.00
2023-03-23T13:35:49.510Z,596.00
2023-03-23T13:36:49.617Z,592.00
2023-03-23T13:37:49.527Z,584.00
2023-03-23T13:38:49.480Z,584.00
2023-03-23T13:39:49.415Z,584.00
2023-03-23T13:40:49.418Z,584.00
2023-03-23T13:41:49.435Z,580.00
2023-03-23T13:42:49.413Z,572.00
2023-03-23T13:43:49.340Z,572.00
2023-03-23T13:44:49.360Z,560.00
2023-03-23T13:45:49.532Z,560.00
2023-03-23T13:46:49.647Z,552.00
2023-03-23T13:47:49.766Z,552.00
2023-03-23T13:48:49.910Z,548.00
2023-03-23T13:49:50.148Z,540.00
2023-03-23T13:50:50.242Z,540.00
2023-03-23T13:51:49.217Z,544.00
2023-03-23T13:52:49.188Z,540.00
2023-03-23T13:53:49.220Z,540.00
2023-03-23T13:54:49.206Z,540.00
2023-03-23T13:55:49.126Z,532.00
2023-03-23T13:56:49.141Z,524.00
2023-03-23T13:57:49.129Z,520.00
2023-03-23T13:58:49.839Z,516.00
2023-03-23T13:59:49.064Z,500.00
2023-03-23T14:00:49.035Z,508.00
2023-03-23T14:01:49.054Z,500.00
2023-03-23T14:02:49.043Z,492.00
2023-03-23T14:03:49.077Z,484.00
2023-03-23T14:04:49.172Z,484.00
2023-03-23T14:05:49.304Z,480.00
2023-03-23T14:06:49.402Z,472.00
2023-03-23T14:07:49.578Z,472.00
2023-03-23T14:08:49.690Z,440.00
2023-03-23T14:09:49.834Z,456.00
2023-03-23T14:10:48.894Z,444.00
2023-03-23T14:11:48.829Z,440.00
2023-03-23T14:12:48.825Z,432.00
2023-03-23T14:13:48.787Z,424.00
2023-03-23T14:14:48.812Z,420.00
2023-03-23T14:15:48.728Z,408.00
2023-03-23T14:16:48.710Z,404.00
2023-03-23T14:17:48.763Z,396.00
2023-03-23T14:18:48.745Z,388.00
2023-03-23T14:19:48.647Z,384.00
2023-03-23T14:20:48.654Z,384.00
2023-03-23T14:21:48.664Z,384.00
2023-03-23T14:22:48.594Z,380.00
2023-03-23T14:23:48.767Z,376.00
2023-03-23T14:24:48.881Z,376.00
2023-03-23T14:25:49.011Z,372.00
2023-03-23T14:26:49.163Z,372.00
2023-03-23T14:27:49.307Z,368.00
2023-03-23T14:28:49.430Z,364.00
2023-03-23T14:29:48.492Z,364.00
2023-03-23T14:30:48.504Z,364.00
2023-03-23T14:31:48.433Z,360.00
2023-03-23T14:32:48.407Z,356.00
2023-03-23T14:33:48.407Z,352.00
2023-03-23T14:34:48.349Z,344.00
2023-03-23T14:35:48.336Z,344.00
2023-03-23T14:36:48.367Z,344.00
2023-03-23T14:37:48.304Z,340.00
2023-03-23T14:38:48.271Z,336.00
2023-03-23T14:39:48.264Z,332.00
2023-03-23T14:40:48.303Z,332.00
2023-03-23T14:41:48.258Z,328.00
2023-03-23T14:42:48.200Z,324.00
2023-03-23T14:43:48.320Z,320.00
2023-03-23T14:44:48.476Z,320.00
2023-03-23T14:45:48.686Z,308.00
2023-03-23T14:46:48.721Z,304.00
2023-03-23T14:47:48.850Z,304.00
2023-03-23T14:48:48.982Z,292.00
2023-03-23T14:49:48.066Z,288.00
2023-03-23T14:50:48.041Z,280.00
2023-03-23T14:51:48.033Z,260.00
2023-03-23T14:52:48.741Z,268.00
2023-03-23T14:53:48.040Z,268.00
2023-03-23T14:54:47.963Z,256.00
2023-03-23T14:55:47.966Z,252.00
2023-03-23T14:56:47.928Z,244.00
2023-03-23T14:57:47.914Z,240.00
2023-03-23T14:58:47.882Z,264.00
2023-03-23T14:59:47.909Z,252.00
2023-03-23T15:00:47.876Z,244.00
2023-03-23T15:01:47.923Z,236.00
2023-03-23T15:02:47.838Z,244.00
2023-03-23T15:03:50.082Z,240.00
2023-03-23T15:04:48.021Z,240.00
2023-03-23T15:05:48.136Z,236.00
2023-03-23T15:06:48.300Z,224.00
2023-03-23T15:07:48.441Z,212.00
2023-03-23T15:08:48.556Z,212.00
2023-03-23T15:09:48.648Z,208.00
2023-03-23T15:10:47.650Z,200.00
2023-03-23T15:11:47.644Z,200.00
2023-03-23T15:12:47.659Z,200.00
2023-03-23T15:13:47.633Z,208.00
2023-03-23T15:14:47.566Z,212.00
2023-03-23T15:15:47.583Z,208.00
2023-03-23T15:16:47.919Z,200.00
2023-03-23T15:17:47.878Z,196.00
2023-03-23T15:18:47.709Z,188.00
2023-03-23T15:19:47.634Z,188.00
2023-03-23T15:20:48.349Z,184.00
2023-03-23T15:22:09.737Z,184.00
2023-03-23T15:22:49.460Z,180.00
2023-03-23T15:23:48.551Z,176.00
2023-03-23T15:24:48.096Z,180.00
2023-03-23T15:25:49.493Z,176.00
2023-03-23T15:26:48.318Z,172.00
2023-03-23T15:27:48.934Z,168.00
2023-03-23T15:28:48.777Z,164.00
2023-03-23T15:29:48.981Z,156.00
2023-03-23T15:30:48.982Z,156.00
2023-03-23T15:32:16.375Z,152.00
2023-03-23T15:32:54.729Z,156.00
2023-03-23T15:34:02.080Z,156.00
2023-03-23T15:34:47.275Z,148.00
2023-03-23T15:35:48.159Z,148.00
2023-03-23T15:36:51.537Z,144.00
2023-03-23T15:37:48.198Z,140.00
2023-03-23T15:38:48.154Z,140.00
2023-03-23T15:39:48.130Z,136.00
2023-03-23T15:40:48.656Z,132.00
2023-03-23T15:41:47.596Z,132.00
2023-03-23T15:42:48.500Z,128.00
2023-03-23T15:45:56.813Z,120.00
2023-03-23T15:46:36.717Z,116.00
